Time;durP1;ratioP1;P1;durP2;ratioP2;P2;SDS_P1;SDS_P2;PMS_P1;PMS_P2;Temp;Humidity;BMP_temperature;BMP_pressure;BME280_temperature;BME280_humidity;BME280_pressure;Samples;Min_cycle;Max_cycle;Signal;HPM_P1;HPM_P2
2022/08/02 00:02:35;;;;;;;5.20;2.22;;;;;;;;;;10065693;28;20080;-67
2022/08/02 00:07:29;;;;;;;5.07;2.22;;;;;;;;;;10064806;28;20064;-67
2022/08/02 00:12:24;;;;;;;4.07;2.80;;;;;;;;;;10062387;28;20068;-67
2022/08/02 00:17:18;;;;;;;5.45;2.10;;;;;;;;;;10065664;28;20448;-67
2022/08/02 00:22:12;;;;;;;2.45;2.25;;;;;;;;;;10066593;28;20049;-67
2022/08/02 00:27:09;;;;;;;2.33;2.15;;;;;;;;;;10069759;28;20049;-67
2022/08/02 00:32:03;;;;;;;2.58;2.38;;;;;;;;;;10062403;28;20045;-67
2022/08/02 00:36:57;;;;;;;4.28;2.65;;;;;;;;;;10067555;28;20045;-67
2022/08/02 00:41:52;;;;;;;6.00;2.92;;;;;;;;;;10059499;28;20053;-67
2022/08/02 00:46:46;;;;;;;5.53;3.33;;;;;;;;;;10073139;28;20056;-67
2022/08/02 00:51:41;;;;;;;5.72;2.90;;;;;;;;;;10066761;28;20060;-67
2022/08/02 00:56:35;;;;;;;5.15;2.50;;;;;;;;;;10058414;28;20049;-67
2022/08/02 01:01:37;;;;;;;3.25;2.92;;;;;;;;;;10068137;28;20124;-67
2022/08/02 01:06:50;;;;;;;10.00;3.33;;;;;;;;;;10059374;28;20133;-67
2022/08/02 01:11:43;;;;;;;9.35;3.80;;;;;;;;;;10071631;28;20079;-67
2022/08/02 01:16:47;;;;;;;10.63;4.70;;;;;;;;;;10071476;28;20054;-67
2022/08/02 01:22:05;;;;;;;10.20;5.55;;;;;;;;;;10069833;28;20092;-67
2022/08/02 01:27:28;;;;;;;10.50;5.13;;;;;;;;;;10069841;28;20053;-67
2022/08/02 01:32:30;;;;;;;9.48;5.38;;;;;;;;;;10064691;28;20049;-67
2022/08/02 01:37:42;;;;;;;9.10;4.88;;;;;;;;;;10057219;28;20095;-67
2022/08/02 01:42:37;;;;;;;8.82;4.90;;;;;;;;;;10070587;28;20412;-67
2022/08/02 01:47:34;;;;;;;7.30;5.82;;;;;;;;;;10056439;28;20053;-67
2022/08/02 01:52:31;;;;;;;11.10;5.17;;;;;;;;;;10068447;28;20056;-66
2022/08/02 01:57:26;;;;;;;7.28;4.35;;;;;;;;;;10069006;28;20053;-66
2022/08/02 02:02:20;;;;;;;8.73;4.22;;;;;;;;;;10067021;28;20440;-66
2022/08/02 02:07:14;;;;;;;7.57;4.55;;;;;;;;;;10068345;28;20053;-67
2022/08/02 02:12:09;;;;;;;8.20;4.60;;;;;;;;;;10069351;28;20049;-67
2022/08/02 02:17:07;;;;;;;6.28;4.97;;;;;;;;;;10067980;28;20058;-67
2022/08/02 02:22:21;;;;;;;5.70;5.10;;;;;;;;;;10069308;28;20472;-67
2022/08/02 02:27:19;;;;;;;8.52;5.15;;;;;;;;;;10069163;28;20580;-67
2022/08/02 02:32:13;;;;;;;10.52;5.93;;;;;;;;;;10068997;28;20057;-67
2022/08/02 02:37:12;;;;;;;11.73;6.47;;;;;;;;;;10067049;28;20108;-67
2022/08/02 02:42:08;;;;;;;11.32;7.75;;;;;;;;;;10060895;28;20508;-68
2022/08/02 02:47:02;;;;;;;13.90;9.60;;;;;;;;;;10067354;28;20508;-67
2022/08/02 02:51:56;;;;;;;12.45;7.53;;;;;;;;;;10066104;28;20073;-67
2022/08/02 02:56:51;;;;;;;9.90;6.90;;;;;;;;;;10065165;28;20064;-67
2022/08/02 03:01:45;;;;;;;6.25;5.65;;;;;;;;;;10061901;28;20050;-68
2022/08/02 03:06:50;;;;;;;11.43;6.88;;;;;;;;;;10053329;28;20065;-67
2022/08/02 03:11:45;;;;;;;9.68;6.10;;;;;;;;;;10067231;28;20395;-68
2022/08/02 03:16:46;;;;;;;11.63;7.43;;;;;;;;;;10067336;28;20049;-67
2022/08/02 03:21:45;;;;;;;10.90;9.85;;;;;;;;;;10066607;28;20424;-67
2022/08/02 03:26:39;;;;;;;12.35;9.82;;;;;;;;;;10067079;28;20103;-67
2022/08/02 03:31:34;;;;;;;11.82;9.95;;;;;;;;;;10065668;28;20064;-67
2022/08/02 03:36:31;;;;;;;11.93;9.43;;;;;;;;;;10055084;28;20524;-67
2022/08/02 03:41:26;;;;;;;9.73;8.80;;;;;;;;;;10055264;28;20447;-67
2022/08/02 03:46:22;;;;;;;7.95;6.32;;;;;;;;;;10064516;28;20064;-66
2022/08/02 03:51:18;;;;;;;9.43;6.40;;;;;;;;;;10062236;28;20493;-67
2022/08/02 03:56:12;;;;;;;8.30;5.63;;;;;;;;;;10058074;28;20561;-66
2022/08/02 04:01:06;;;;;;;8.52;6.90;;;;;;;;;;10065233;28;20115;-66
2022/08/02 04:05:59;;;;;;;11.30;6.57;;;;;;;;;;10069903;28;20068;-66
2022/08/02 04:11:39;;;;;;;7.07;6.03;;;;;;;;;;10074314;28;20484;-67
2022/08/02 04:16:22;;;;;;;8.73;6.35;;;;;;;;;;10067117;28;20053;-67
2022/08/02 04:21:19;;;;;;;8.82;6.40;;;;;;;;;;10069834;28;20060;-66
2022/08/02 04:26:13;;;;;;;12.68;6.00;;;;;;;;;;10071847;28;20045;-66
2022/08/02 04:31:08;;;;;;;6.40;5.57;;;;;;;;;;10068303;28;20107;-67
2022/08/02 04:36:04;;;;;;;18.48;7.65;;;;;;;;;;10072409;28;20061;-67
2022/08/02 04:40:58;;;;;;;8.02;4.72;;;;;;;;;;10080284;28;20480;-67
2022/08/02 04:45:53;;;;;;;13.57;4.20;;;;;;;;;;10064365;28;20397;-66
2022/08/02 04:50:47;;;;;;;9.38;4.97;;;;;;;;;;10071653;28;20065;-67
2022/08/02 04:55:42;;;;;;;14.02;5.57;;;;;;;;;;10071272;28;20107;-67
2022/08/02 05:00:36;;;;;;;8.95;4.90;;;;;;;;;;10072491;28;20060;-66
2022/08/02 05:05:30;;;;;;;16.15;6.13;;;;;;;;;;10073630;28;20440;-66
2022/08/02 05:10:23;;;;;;;18.05;5.28;;;;;;;;;;10075543;28;20054;-68
2022/08/02 05:15:17;;;;;;;11.32;4.95;;;;;;;;;;10070486;28;20052;-67
2022/08/02 05:20:13;;;;;;;12.90;4.68;;;;;;;;;;10075954;28;20137;-67
2022/08/02 05:25:08;;;;;;;11.93;4.30;;;;;;;;;;10069027;28;20128;-67
2022/08/02 05:30:04;;;;;;;10.68;4.40;;;;;;;;;;10067030;28;20398;-67
2022/08/02 05:35:00;;;;;;;11.52;5.20;;;;;;;;;;10069245;28;20496;-67
2022/08/02 05:39:54;;;;;;;14.25;5.47;;;;;;;;;;10062392;28;20104;-66
2022/08/02 05:44:48;;;;;;;6.18;3.97;;;;;;;;;;10064343;28;20037;-66
2022/08/02 05:49:42;;;;;;;11.95;3.60;;;;;;;;;;10065047;28;20053;-65
2022/08/02 05:54:49;;;;;;;8.70;2.72;;;;;;;;;;10065794;28;20091;-66
2022/08/02 05:59:51;;;;;;;4.18;2.58;;;;;;;;;;10069362;28;20435;-65
2022/08/02 06:05:07;;;;;;;8.25;2.65;;;;;;;;;;10066747;28;20080;-66
2022/08/02 06:10:06;;;;;;;7.10;2.65;;;;;;;;;;10065281;28;20552;-66
2022/08/02 06:15:03;;;;;;;6.32;2.13;;;;;;;;;;10067296;28;20076;-66
2022/08/02 06:19:57;;;;;;;7.18;2.30;;;;;;;;;;10070291;28;20061;-66
2022/08/02 06:24:49;;;;;;;6.97;2.20;;;;;;;;;;10070297;28;20053;-67
2022/08/02 06:29:45;;;;;;;7.72;2.35;;;;;;;;;;10064859;28;20072;-68
2022/08/02 06:34:40;;;;;;;8.02;2.28;;;;;;;;;;10041726;28;20041;-73
2022/08/02 06:39:41;;;;;;;;;;;;;;;;;;10057908;28;20045;-72
2022/08/02 06:44:37;;;;;;;6.30;2.27;;;;;;;;;;10054251;28;19921;-68
2022/08/02 06:49:41;;;;;;;7.22;1.70;;;;;;;;;;10050807;28;20088;-68
2022/08/02 06:54:46;;;;;;;10.48;2.00;;;;;;;;;;10058821;28;20072;-69
2022/08/02 06:59:40;;;;;;;11.68;3.08;;;;;;;;;;10060779;28;20053;-67
2022/08/02 07:04:35;;;;;;;6.63;1.98;;;;;;;;;;10048932;28;20049;-68
2022/08/02 07:09:29;;;;;;;3.38;1.63;;;;;;;;;;10059361;28;20103;-67
2022/08/02 07:14:24;;;;;;;13.05;1.98;;;;;;;;;;10060700;28;20077;-68
2022/08/02 07:19:18;;;;;;;5.38;1.90;;;;;;;;;;10058161;28;20060;-68
2022/08/02 07:24:11;;;;;;;9.98;3.00;;;;;;;;;;10055255;28;20080;-68
2022/08/02 07:29:08;;;;;;;6.30;2.63;;;;;;;;;;10047144;28;20046;-68
2022/08/02 07:34:01;;;;;;;5.18;2.35;;;;;;;;;;10063696;28;20057;-68
2022/08/02 07:38:56;;;;;;;10.27;3.63;;;;;;;;;;10076245;28;20123;-67
2022/08/02 07:43:51;;;;;;;10.27;3.05;;;;;;;;;;10065361;28;20053;-68
2022/08/02 07:48:47;;;;;;;10.50;3.30;;;;;;;;;;10075817;28;20037;-67
2022/08/02 07:53:41;;;;;;;10.35;2.50;;;;;;;;;;10064507;28;20046;-67
2022/08/02 07:58:54;;;;;;;9.30;2.75;;;;;;;;;;10064138;28;20049;-67
2022/08/02 08:03:49;;;;;;;4.88;2.03;;;;;;;;;;10066212;28;20045;-68
2022/08/02 08:08:42;;;;;;;6.97;1.92;;;;;;;;;;10066667;28;20042;-61
2022/08/02 08:13:36;;;;;;;12.73;2.83;;;;;;;;;;10065447;28;20046;-61
2022/08/02 08:18:32;;;;;;;8.13;2.13;;;;;;;;;;10068316;28;20049;-61
2022/08/02 08:23:26;;;;;;;4.15;1.83;;;;;;;;;;10069336;28;20460;-61
2022/08/02 08:28:19;;;;;;;5.75;2.50;;;;;;;;;;10064735;28;20160;-61
2022/08/02 08:33:14;;;;;;;7.65;1.92;;;;;;;;;;10062602;28;20515;-62
2022/08/02 08:38:08;;;;;;;8.02;2.97;;;;;;;;;;10062174;28;20045;-62
2022/08/02 08:43:03;;;;;;;11.95;3.35;;;;;;;;;;10063299;28;20053;-62
2022/08/02 08:48:01;;;;;;;6.68;1.52;;;;;;;;;;10066420;28;20057;-62
2022/08/02 08:52:59;;;;;;;8.82;1.70;;;;;;;;;;10075174;28;20099;-62
2022/08/02 08:57:54;;;;;;;4.68;1.80;;;;;;;;;;10076674;28;20053;-62
2022/08/02 09:02:49;;;;;;;3.53;1.40;;;;;;;;;;10067720;28;20124;-62
2022/08/02 09:07:47;;;;;;;14.82;1.88;;;;;;;;;;10067131;28;20057;-62
2022/08/02 09:12:44;;;;;;;4.63;1.70;;;;;;;;;;10075885;28;20057;-62
2022/08/02 09:17:49;;;;;;;7.55;2.47;;;;;;;;;;10080496;28;20049;-62
2022/08/02 09:22:43;;;;;;;4.70;1.40;;;;;;;;;;10067527;28;20560;-62
2022/08/02 09:27:37;;;;;;;3.90;1.30;;;;;;;;;;10070153;28;20037;-62
2022/08/02 09:32:44;;;;;;;11.38;2.72;;;;;;;;;;10068630;28;20045;-62
2022/08/02 09:37:38;;;;;;;9.23;2.80;;;;;;;;;;10060556;28;20106;-62
2022/08/02 09:42:34;;;;;;;4.88;1.23;;;;;;;;;;10056442;28;20046;-62
2022/08/02 09:47:29;;;;;;;5.35;1.35;;;;;;;;;;10054002;28;20404;-62
2022/08/02 09:52:30;;;;;;;9.52;1.50;;;;;;;;;;10064432;28;20108;-62
2022/08/02 09:57:32;;;;;;;2.85;1.10;;;;;;;;;;10064114;28;20046;-62
2022/08/02 10:02:26;;;;;;;1.60;0.90;;;;;;;;;;10057698;28;20058;-62
2022/08/02 10:07:21;;;;;;;1.15;0.68;;;;;;;;;;10063566;28;20404;-62
2022/08/02 10:12:15;;;;;;;1.63;0.80;;;;;;;;;;10056312;28;20389;-63
2022/08/02 10:17:09;;;;;;;3.30;0.80;;;;;;;;;;10060573;28;20453;-59
2022/08/02 10:22:09;;;;;;;4.57;1.08;;;;;;;;;;10067375;28;20065;-56
2022/08/02 10:27:06;;;;;;;5.57;0.75;;;;;;;;;;10067899;28;20104;-57
2022/08/02 10:32:10;;;;;;;4.68;0.70;;;;;;;;;;10069151;28;20091;-57
2022/08/02 10:37:08;;;;;;;1.58;0.93;;;;;;;;;;10066913;28;20081;-57
2022/08/02 10:42:06;;;;;;;1.95;0.60;;;;;;;;;;10065705;28;20053;-59
2022/08/02 10:47:12;;;;;;;1.33;0.80;;;;;;;;;;10053426;28;20124;-57
2022/08/02 10:52:08;;;;;;;3.03;0.68;;;;;;;;;;10065703;28;20455;-57
2022/08/02 10:57:14;;;;;;;1.67;0.60;;;;;;;;;;10065301;28;20128;-57
2022/08/02 11:02:09;;;;;;;2.80;0.80;;;;;;;;;;10060043;28;20107;-58
2022/08/02 11:07:16;;;;;;;5.82;0.70;;;;;;;;;;10062949;28;20054;-57
2022/08/02 11:12:13;;;;;;;2.25;0.80;;;;;;;;;;10067196;28;20057;-57
2022/08/02 11:17:11;;;;;;;2.55;0.82;;;;;;;;;;10065701;28;20129;-57
2022/08/02 11:22:26;;;;;;;3.20;0.65;;;;;;;;;;10062261;28;20479;-57
2022/08/02 11:27:21;;;;;;;3.67;1.17;;;;;;;;;;10058810;28;20049;-57
2022/08/02 11:57:24;;;;;;;3.42;0.85;;;;;;;;;;10099531;28;20840;-67
2022/08/02 12:02:38;;;;;;;6.82;1.10;;;;;;;;;;10100831;28;20531;-69
2022/08/02 12:07:37;;;;;;;3.33;0.73;;;;;;;;;;10097377;28;20060;-63
2022/08/02 12:12:57;;;;;;;5.40;0.80;;;;;;;;;;10099123;28;20409;-64
2022/08/02 12:23:05;;;;;;;1.40;0.90;;;;;;;;;;10098409;28;20049;-67
2022/08/02 12:28:25;;;;;;;5.07;0.80;;;;;;;;;;10099640;28;20053;-62
2022/08/02 12:33:18;;;;;;;2.13;0.85;;;;;;;;;;10097279;28;20490;-63
2022/08/02 12:38:13;;;;;;;9.15;1.10;;;;;;;;;;10100017;28;20073;-65
2022/08/02 12:43:14;;;;;;;1.73;0.90;;;;;;;;;;10090338;28;20050;-62
2022/08/02 12:48:08;;;;;;;1.13;0.75;;;;;;;;;;10099180;28;20493;-67
2022/08/02 12:53:13;;;;;;;3.70;0.70;;;;;;;;;;10097728;28;20136;-64
2022/08/02 12:58:07;;;;;;;;;;;;;;;;;;10073383;28;20375;-63
2022/08/02 13:03:01;;;;;;;2.97;0.80;;;;;;;;;;10066719;28;20373;-64
2022/08/02 13:07:58;;;;;;;3.75;1.08;;;;;;;;;;10071720;28;20049;-64
2022/08/02 13:12:51;;;;;;;2.88;0.63;;;;;;;;;;10067632;28;20493;-63
2022/08/02 13:17:44;;;;;;;1.25;0.60;;;;;;;;;;10069233;28;20052;-64
2022/08/02 13:22:38;;;;;;;2.17;0.82;;;;;;;;;;10061472;28;20076;-64
2022/08/02 13:27:44;;;;;;;4.15;0.80;;;;;;;;;;10060913;28;20038;-64
2022/08/02 13:32:38;;;;;;;1.73;0.90;;;;;;;;;;10069244;28;20049;-64
2022/08/02 13:37:31;;;;;;;1.95;1.10;;;;;;;;;;10071069;28;20073;-64
2022/08/02 13:42:32;;;;;;;12.18;2.33;;;;;;;;;;10064218;28;20080;-64
2022/08/02 13:47:25;;;;;;;1.88;0.70;;;;;;;;;;10070998;28;20057;-64
2022/08/02 13:52:39;;;;;;;2.20;0.90;;;;;;;;;;10070520;28;20497;-64
2022/08/02 13:57:32;;;;;;;2.45;1.20;;;;;;;;;;10071074;28;20045;-64
2022/08/02 14:02:29;;;;;;;3.70;0.80;;;;;;;;;;10070268;28;20493;-64
2022/08/02 14:07:40;;;;;;;1.80;0.80;;;;;;;;;;10066015;28;20054;-63
2022/08/02 14:12:34;;;;;;;2.17;1.10;;;;;;;;;;10069783;28;20072;-65
2022/08/02 14:17:27;;;;;;;1.88;1.02;;;;;;;;;;10069110;28;20068;-63
2022/08/02 14:22:21;;;;;;;1.63;1.20;;;;;;;;;;10069068;28;20112;-63
2022/08/02 14:27:18;;;;;;;1.65;1.02;;;;;;;;;;10069217;28;20057;-63
2022/08/02 14:32:12;;;;;;;7.00;1.23;;;;;;;;;;10068349;28;20417;-63
2022/08/02 14:37:07;;;;;;;5.65;1.20;;;;;;;;;;10069007;28;20081;-63
2022/08/02 14:42:01;;;;;;;3.85;1.33;;;;;;;;;;10067949;28;20064;-63
2022/08/02 14:46:56;;;;;;;4.53;1.00;;;;;;;;;;10067885;28;20132;-63
2022/08/02 14:51:50;;;;;;;4.70;1.10;;;;;;;;;;10067976;28;20294;-62
2022/08/02 14:56:44;;;;;;;3.03;1.40;;;;;;;;;;10068539;28;20083;-62
2022/08/02 15:01:41;;;;;;;2.17;1.10;;;;;;;;;;10067694;28;20128;-62
2022/08/02 15:06:35;;;;;;;1.15;1.05;;;;;;;;;;10065864;28;20057;-62
2022/08/02 15:11:30;;;;;;;4.22;1.30;;;;;;;;;;10067393;28;20053;-62
2022/08/02 15:16:40;;;;;;;1.17;1.10;;;;;;;;;;10067371;28;20049;-62
2022/08/02 15:21:48;;;;;;;3.30;1.10;;;;;;;;;;10067673;28;20044;-62
2022/08/02 15:26:49;;;;;;;2.92;1.30;;;;;;;;;;10066841;28;20057;-63
2022/08/02 15:31:42;;;;;;;0.93;0.90;;;;;;;;;;10066576;28;20054;-63
2022/08/02 15:36:35;;;;;;;2.33;1.23;;;;;;;;;;10066943;28;20076;-63
2022/08/02 15:41:30;;;;;;;18.92;3.97;;;;;;;;;;10066856;28;20132;-63
2022/08/02 15:46:23;;;;;;;1.38;1.10;;;;;;;;;;10063675;28;20096;-62
2022/08/02 15:51:25;;;;;;;3.30;1.05;;;;;;;;;;10066635;28;20501;-62
2022/08/02 15:56:20;;;;;;;5.22;1.30;;;;;;;;;;10065856;28;20060;-62
2022/08/02 16:01:16;;;;;;;2.28;1.40;;;;;;;;;;10066383;28;20477;-63
2022/08/02 16:06:11;;;;;;;4.28;1.20;;;;;;;;;;10064699;28;20460;-61
2022/08/02 16:11:05;;;;;;;2.58;1.20;;;;;;;;;;10065093;28;20053;-62
2022/08/02 16:15:59;;;;;;;4.78;1.20;;;;;;;;;;10065854;28;20057;-62
2022/08/02 16:20:53;;;;;;;1.58;1.10;;;;;;;;;;10065851;28;20056;-66
2022/08/02 16:25:52;;;;;;;3.85;1.55;;;;;;;;;;10065513;28;20049;-63
2022/08/02 16:30:46;;;;;;;1.98;1.20;;;;;;;;;;10067381;28;20056;-63
2022/08/02 16:36:00;;;;;;;2.55;1.00;;;;;;;;;;10070785;28;20479;-63
2022/08/02 16:40:55;;;;;;;6.72;1.23;;;;;;;;;;10072943;28;20054;-63
2022/08/02 16:45:54;;;;;;;1.20;1.10;;;;;;;;;;10073246;28;20071;-62
2022/08/02 16:50:49;;;;;;;4.43;1.10;;;;;;;;;;10069428;28;20480;-62
2022/08/02 16:55:43;;;;;;;2.35;2.00;;;;;;;;;;10056069;28;20061;-62
2022/08/02 17:00:47;;;;;;;5.28;1.20;;;;;;;;;;10068767;28;20061;-63
2022/08/02 17:05:44;;;;;;;4.60;1.65;;;;;;;;;;10066466;28;20045;-63
2022/08/02 17:11:00;;;;;;;4.35;1.45;;;;;;;;;;10066509;28;20076;-62
2022/08/02 17:15:56;;;;;;;;;;;;;;;;;;10062045;28;20501;-63
2022/08/02 17:21:12;;;;;;;2.13;1.30;;;;;;;;;;10067607;28;20284;-68
2022/08/02 17:26:11;;;;;;;4.03;1.35;;;;;;;;;;10061639;28;20077;-64
2022/08/02 17:31:07;;;;;;;1.30;1.10;;;;;;;;;;10082985;28;20046;-65
2022/08/02 17:36:00;;;;;;;2.65;1.58;;;;;;;;;;10070787;28;20045;-64
2022/08/02 17:41:02;;;;;;;5.05;1.73;;;;;;;;;;10070653;28;20053;-62
2022/08/02 17:46:08;;;;;;;2.75;1.42;;;;;;;;;;10070292;28;20053;-64
2022/08/02 17:51:04;;;;;;;2.13;1.43;;;;;;;;;;10070736;28;20163;-64
2022/08/02 17:55:58;;;;;;;7.22;1.48;;;;;;;;;;10069833;28;20144;-65
2022/08/02 18:00:56;;;;;;;5.70;1.40;;;;;;;;;;10070251;28;20084;-63
2022/08/02 18:05:51;;;;;;;2.28;1.60;;;;;;;;;;10069206;28;20049;-65
2022/08/02 18:10:48;;;;;;;1.65;1.55;;;;;;;;;;10069427;28;20057;-64
2022/08/02 18:15:42;;;;;;;3.58;1.27;;;;;;;;;;10069391;28;20055;-64
2022/08/02 18:20:38;;;;;;;7.25;2.00;;;;;;;;;;10069129;28;20042;-65
2022/08/02 18:25:33;;;;;;;5.95;1.40;;;;;;;;;;10066692;28;20429;-65
2022/08/02 18:30:39;;;;;;;4.10;1.75;;;;;;;;;;10061126;28;20061;-62
2022/08/02 18:35:34;;;;;;;7.93;1.80;;;;;;;;;;10068907;28;20136;-63
2022/08/02 18:40:28;;;;;;;1.88;1.27;;;;;;;;;;10068191;28;20053;-62
2022/08/02 18:45:24;;;;;;;4.88;1.40;;;;;;;;;;10068239;28;20048;-60
2022/08/02 18:50:40;;;;;;;4.28;1.67;;;;;;;;;;10054904;28;20042;-63
2022/08/02 18:55:42;;;;;;;7.13;2.10;;;;;;;;;;10060294;28;20083;-64
2022/08/02 19:00:55;;;;;;;7.10;2.08;;;;;;;;;;10062731;28;20144;-64
2022/08/02 19:05:51;;;;;;;6.55;1.73;;;;;;;;;;10064969;28;20563;-60
2022/08/02 19:10:51;;;;;;;6.35;2.40;;;;;;;;;;10060179;28;20442;-62
2022/08/02 19:15:48;;;;;;;13.23;2.28;;;;;;;;;;10062737;28;20547;-62
2022/08/02 19:20:42;;;;;;;7.93;3.03;;;;;;;;;;10064618;28;20053;-62
2022/08/02 19:25:40;;;;;;;9.45;2.85;;;;;;;;;;10060561;28;20404;-63
2022/08/02 19:30:47;;;;;;;8.68;3.13;;;;;;;;;;10060159;28;20057;-63
2022/08/02 19:35:44;;;;;;;7.18;3.70;;;;;;;;;;10061114;28;20088;-63
2022/08/02 19:40:55;;;;;;;8.60;5.13;;;;;;;;;;10060858;28;20472;-64
2022/08/02 19:45:50;;;;;;;8.95;5.88;;;;;;;;;;10059387;28;20058;-64
2022/08/02 19:50:49;;;;;;;9.30;5.43;;;;;;;;;;10055702;28;20049;-64
2022/08/02 19:55:44;;;;;;;10.93;5.22;;;;;;;;;;10062292;28;20081;-63
2022/08/02 20:00:54;;;;;;;7.38;3.42;;;;;;;;;;10060893;28;20057;-66
2022/08/02 20:05:48;;;;;;;15.65;3.28;;;;;;;;;;10061759;28;20099;-65
2022/08/02 20:10:43;;;;;;;7.72;2.25;;;;;;;;;;10068793;28;20065;-64
2022/08/02 20:15:39;;;;;;;;;;;;;;;;;;10069214;28;20046;-62
2022/08/02 20:20:48;;;;;;;9.20;2.20;;;;;;;;;;10063390;28;19928;-63
2022/08/02 20:25:43;;;;;;;6.75;2.10;;;;;;;;;;10070806;28;20120;-65
2022/08/02 20:30:38;;;;;;;10.82;2.72;;;;;;;;;;10069236;28;20429;-64
2022/08/02 20:35:32;;;;;;;9.15;2.40;;;;;;;;;;10069757;28;20170;-66
2022/08/02 20:40:27;;;;;;;7.65;1.98;;;;;;;;;;10071761;28;20076;-66
2022/08/02 20:45:24;;;;;;;4.05;2.40;;;;;;;;;;10072350;28;20073;-66
2022/08/02 20:55:32;;;;;;;3.80;1.70;;;;;;;;;;10071661;28;20100;-67
2022/08/02 21:00:26;;;;;;;5.65;1.80;;;;;;;;;;10067326;28;20045;-66
2022/08/02 21:05:20;;;;;;;3.65;1.80;;;;;;;;;;10072428;28;20056;-66
2022/08/02 21:10:34;;;;;;;8.23;2.70;;;;;;;;;;10071155;28;20091;-66
2022/08/02 21:15:28;;;;;;;3.85;2.17;;;;;;;;;;10070175;28;20033;-66
2022/08/02 21:20:27;;;;;;;7.85;3.38;;;;;;;;;;10065567;28;20053;-66
2022/08/02 21:25:24;;;;;;;8.65;2.42;;;;;;;;;;10070854;28;20084;-66
2022/08/02 21:30:39;;;;;;;4.97;2.45;;;;;;;;;;10067561;28;20065;-66
2022/08/02 21:35:35;;;;;;;12.13;3.53;;;;;;;;;;10068336;28;20053;-66
2022/08/02 21:40:30;;;;;;;2.78;2.03;;;;;;;;;;10070759;28;20053;-66
2022/08/02 21:45:25;;;;;;;10.93;2.78;;;;;;;;;;10070746;28;20076;-67
2022/08/02 21:50:20;;;;;;;3.45;2.55;;;;;;;;;;10070605;28;20060;-66
2022/08/02 21:55:14;;;;;;;7.53;2.45;;;;;;;;;;10070149;28;20111;-65
2022/08/02 22:00:16;;;;;;;5.53;2.33;;;;;;;;;;10068354;28;20041;-65
2022/08/02 22:05:20;;;;;;;4.80;3.00;;;;;;;;;;10069101;28;20115;-65
2022/08/02 22:10:15;;;;;;;9.23;2.75;;;;;;;;;;10070002;28;20057;-65
2022/08/02 22:15:10;;;;;;;7.30;3.55;;;;;;;;;;10069020;28;20099;-65
2022/08/02 22:20:04;;;;;;;3.33;2.60;;;;;;;;;;10069895;28;20045;-65
2022/08/02 22:24:58;;;;;;;4.13;3.28;;;;;;;;;;10069423;28;20048;-65
2022/08/02 22:29:58;;;;;;;3.75;2.70;;;;;;;;;;10068333;28;20421;-65
2022/08/02 22:34:55;;;;;;;3.45;2.50;;;;;;;;;;10069135;28;20038;-65
2022/08/02 22:39:50;;;;;;;5.65;2.67;;;;;;;;;;10068224;28;20135;-66
2022/08/02 22:45:08;;;;;;;5.32;2.50;;;;;;;;;;10068216;28;20041;-66
2022/08/02 22:50:03;;;;;;;4.63;2.78;;;;;;;;;;10067733;28;20111;-65
2022/08/02 22:54:57;;;;;;;5.63;2.50;;;;;;;;;;10066728;28;20084;-66
2022/08/02 22:59:51;;;;;;;3.88;2.70;;;;;;;;;;10067421;28;20136;-65
2022/08/02 23:04:46;;;;;;;5.43;2.72;;;;;;;;;;10067356;28;20125;-65
2022/08/02 23:09:40;;;;;;;7.07;3.15;;;;;;;;;;10067305;28;20124;-65
2022/08/02 23:14:36;;;;;;;3.10;2.80;;;;;;;;;;10067763;28;20081;-66
2022/08/02 23:24:42;;;;;;;8.07;3.92;;;;;;;;;;10066919;28;20119;-65
2022/08/02 23:29:36;;;;;;;5.78;2.88;;;;;;;;;;10067205;28;20054;-65
2022/08/02 23:34:31;;;;;;;3.08;2.80;;;;;;;;;;10066299;28;20050;-66
2022/08/02 23:39:25;;;;;;;7.70;2.55;;;;;;;;;;10066771;28;20159;-65
2022/08/02 23:44:20;;;;;;;3.65;2.55;;;;;;;;;;10067209;28;20050;-66
2022/08/02 23:49:15;;;;;;;8.18;2.72;;;;;;;;;;10066824;28;20092;-66
2022/08/02 23:54:09;;;;;;;3.78;2.83;;;;;;;;;;10066774;28;20068;-66
2022/08/02 23:59:06;;;;;;;4.97;3.33;;;;;;;;;;10066068;28;20064;-66
